Time;durP1;ratioP1;P1;durP2;ratioP2;P2;SDS_P1;SDS_P2;PMS_P1;PMS_P2;Temp;Humidity;BMP_temperature;BMP_pressure;BME280_temperature;BME280_humidity;BME280_pressure;Samples;Min_cycle;Max_cycle;Signal;HPM_P1;HPM_P2
2021/03/23 00:00:22;;;;;;;19.02;9.30;;;6.50;99.90;;;;;;5104846;27;20374;-57
2021/03/23 00:03:01;;;;;;;20.05;9.48;;;6.50;99.90;;;;;;5113504;28;20477;-57
2021/03/23 00:05:27;;;;;;;20.92;9.65;;;6.40;99.90;;;;;;5113391;27;20034;-57
2021/03/23 00:07:53;;;;;;;17.90;9.35;;;6.40;99.90;;;;;;5114775;27;20020;-58
2021/03/23 00:10:23;;;;;;;22.98;11.05;;;6.40;99.90;;;;;;5113215;27;20020;-55
2021/03/23 00:12:49;;;;;;;21.35;10.90;;;6.40;99.90;;;;;;5107202;27;20618;-55
2021/03/23 00:15:15;;;;;;;22.63;10.45;;;6.40;99.90;;;;;;5109136;27;20031;-56
2021/03/23 00:17:41;;;;;;;20.63;12.00;;;6.50;99.90;;;;;;5113554;27;20028;-53
2021/03/23 00:20:10;;;;;;;27.38;12.57;;;6.50;99.90;;;;;;5114235;27;20035;-57
2021/03/23 00:22:36;;;;;;;21.65;11.02;;;6.50;99.90;;;;;;5112427;27;20104;-56
2021/03/23 00:25:03;;;;;;;18.00;10.43;;;6.50;99.90;;;;;;5114416;27;20031;-55
2021/03/23 00:27:29;;;;;;;23.33;11.82;;;6.50;99.90;;;;;;5111378;28;20366;-54
2021/03/23 00:29:55;;;;;;;20.40;10.38;;;6.50;99.90;;;;;;5115048;27;20106;-53
2021/03/23 00:32:21;;;;;;;23.73;14.00;;;6.50;99.90;;;;;;5113279;28;20029;-56
2021/03/23 00:34:46;;;;;;;22.30;12.73;;;6.50;99.90;;;;;;5112789;27;20513;-54
2021/03/23 00:37:13;;;;;;;25.30;13.25;;;6.60;99.90;;;;;;5112418;28;20371;-55
2021/03/23 00:39:40;;;;;;;32.05;15.35;;;6.60;99.90;;;;;;5118073;27;20027;-56
2021/03/23 00:42:06;;;;;;;26.92;14.00;;;6.60;99.90;;;;;;5102501;27;20481;-58
2021/03/23 00:44:33;;;;;;;25.80;14.50;;;6.60;99.90;;;;;;5112862;28;20016;-58
2021/03/23 00:46:59;;;;;;;27.30;14.57;;;6.60;99.90;;;;;;5111639;28;20023;-58
2021/03/23 00:49:24;;;;;;;30.80;14.60;;;6.70;99.90;;;;;;5107771;27;20110;-57
2021/03/23 00:51:50;;;;;;;30.15;15.02;;;6.70;99.90;;;;;;5112837;28;20170;-58
2021/03/23 00:54:15;;;;;;;32.05;16.65;;;6.70;99.90;;;;;;5121814;27;20031;-57
2021/03/23 00:56:41;;;;;;;24.92;15.80;;;6.70;99.90;;;;;;5115541;27;20038;-53
2021/03/23 00:59:07;;;;;;;31.95;16.35;;;6.70;99.90;;;;;;5109025;28;20024;-57
2021/03/23 01:01:33;;;;;;;32.03;15.90;;;6.60;99.90;;;;;;5113747;27;20035;-55
2021/03/23 01:03:58;;;;;;;33.58;16.50;;;6.60;99.90;;;;;;5118826;27;20023;-56
2021/03/23 01:06:24;;;;;;;28.63;15.65;;;6.60;99.90;;;;;;5091823;28;20680;-58
2021/03/23 01:08:50;;;;;;;33.13;18.23;;;6.60;99.90;;;;;;5117412;27;20024;-58
2021/03/23 01:11:16;;;;;;;33.35;17.55;;;6.60;99.90;;;;;;5101885;28;20042;-58
2021/03/23 01:13:42;;;;;;;29.77;16.95;;;6.60;99.90;;;;;;5118176;27;20106;-56
2021/03/23 01:16:08;;;;;;;39.88;17.88;;;6.60;99.90;;;;;;5107644;27;20425;-58
2021/03/23 01:18:34;;;;;;;36.42;18.25;;;6.60;99.90;;;;;;5093696;28;20429;-57
2021/03/23 01:21:00;;;;;;;36.00;18.52;;;6.60;99.90;;;;;;5112174;27;20034;-58
2021/03/23 01:23:26;;;;;;;42.38;18.45;;;6.60;99.90;;;;;;5115222;27;20389;-57
2021/03/23 01:25:51;;;;;;;41.47;20.33;;;6.60;99.90;;;;;;5109541;27;20031;-58
2021/03/23 01:28:17;;;;;;;34.75;17.67;;;6.50;99.90;;;;;;5111800;28;20362;-57
2021/03/23 01:30:42;;;;;;;36.88;20.55;;;6.50;99.90;;;;;;5108236;28;20538;-55
2021/03/23 01:33:08;;;;;;;42.60;19.73;;;6.60;99.90;;;;;;5107913;28;20436;-57
2021/03/23 01:35:34;;;;;;;45.42;21.88;;;6.50;99.90;;;;;;5102142;28;20024;-53
2021/03/23 01:38:00;;;;;;;40.38;20.40;;;6.60;99.90;;;;;;5111501;28;20027;-57
2021/03/23 01:40:27;;;;;;;40.55;20.15;;;6.60;99.90;;;;;;5112841;27;20397;-58
2021/03/23 01:43:03;;;;;;;48.80;23.17;;;6.70;99.90;;;;;;5115864;28;20020;-57
2021/03/23 01:45:35;;;;;;;49.70;23.25;;;6.70;99.90;;;;;;5114085;27;20035;-58
2021/03/23 01:48:05;;;;;;;37.72;20.13;;;6.70;99.90;;;;;;5116124;28;20466;-55
2021/03/23 01:50:32;;;;;;;41.72;21.35;;;6.70;99.90;;;;;;5115835;27;20390;-58
2021/03/23 01:53:09;;;;;;;42.45;23.13;;;6.60;99.90;;;;;;5115606;27;20020;-58
2021/03/23 01:55:36;;;;;;;46.50;22.80;;;6.50;99.90;;;;;;5116874;27;20035;-58
2021/03/23 01:58:02;;;;;;;42.10;21.52;;;6.60;99.90;;;;;;5107379;27;20023;-56
2021/03/23 02:00:27;;;;;;;41.83;21.35;;;6.60;99.90;;;;;;5111103;27;20027;-56
2021/03/23 02:02:53;;;;;;;45.63;22.23;;;6.50;99.90;;;;;;5115267;27;20027;-57
2021/03/23 02:05:25;;;;;;;41.20;22.67;;;6.60;99.90;;;;;;5118271;27;20031;-58
2021/03/23 02:07:51;;;;;;;42.08;21.65;;;6.60;99.90;;;;;;5106793;28;20011;-57
2021/03/23 02:10:18;;;;;;;41.63;22.10;;;6.60;99.90;;;;;;5118555;27;20028;-57
2021/03/23 02:12:45;;;;;;;45.00;21.90;;;6.50;99.90;;;;;;5115288;27;20020;-56
2021/03/23 02:15:13;;;;;;;46.90;22.23;;;6.50;99.90;;;;;;5117064;27;20035;-56
2021/03/23 02:17:39;;;;;;;44.50;22.80;;;6.50;99.90;;;;;;5111574;27;20435;-58
2021/03/23 02:20:12;;;;;;;53.83;23.30;;;6.50;99.90;;;;;;5110913;27;20019;-56
2021/03/23 02:22:41;;;;;;;50.90;24.63;;;6.50;99.90;;;;;;5111664;27;20030;-58
2021/03/23 02:25:17;;;;;;;59.00;25.42;;;6.50;99.90;;;;;;5115043;27;20027;-53
2021/03/23 02:27:43;;;;;;;58.28;25.55;;;6.50;99.90;;;;;;5108275;27;20050;-57
2021/03/23 02:30:16;;;;;;;51.67;26.50;;;6.60;99.90;;;;;;5112939;27;20030;-55
2021/03/23 02:32:42;;;;;;;59.85;26.42;;;6.50;99.90;;;;;;5106263;27;20396;-56
2021/03/23 02:35:08;;;;;;;51.72;24.95;;;6.50;99.90;;;;;;5107223;27;20098;-56
2021/03/23 02:37:34;;;;;;;54.53;26.20;;;6.50;99.90;;;;;;5115411;27;20442;-57
2021/03/23 02:39:59;;;;;;;60.97;27.35;;;6.50;99.90;;;;;;5114094;27;20031;-57
2021/03/23 02:42:25;;;;;;;61.97;28.38;;;6.50;99.90;;;;;;5111366;27;20023;-56
2021/03/23 02:44:51;;;;;;;62.15;26.15;;;6.60;99.90;;;;;;5120551;27;20032;-57
2021/03/23 02:47:18;;;;;;;51.92;27.30;;;6.60;99.90;;;;;;5108609;28;20050;-56
2021/03/23 02:49:44;;;;;;;67.38;28.90;;;6.60;99.90;;;;;;5113624;27;20022;-58
2021/03/23 02:52:11;;;;;;;65.47;28.30;;;6.60;99.90;;;;;;5109807;28;20023;-56
2021/03/23 02:54:37;;;;;;;61.35;29.15;;;6.60;99.90;;;;;;5110519;27;20028;-57
2021/03/23 02:57:03;;;;;;;68.60;31.00;;;6.60;99.90;;;;;;5103751;27;20066;-57
2021/03/23 02:59:28;;;;;;;54.92;27.00;;;6.50;99.90;;;;;;5114632;28;20023;-57
2021/03/23 03:01:54;;;;;;;60.97;29.63;;;6.50;99.90;;;;;;5111715;27;20042;-56
2021/03/23 03:04:20;;;;;;;66.53;29.85;;;6.60;99.90;;;;;;5105427;28;20024;-57
2021/03/23 03:06:46;;;;;;;65.32;29.30;;;6.50;99.90;;;;;;5111642;28;20032;-55
2021/03/23 03:09:11;;;;;;;69.85;29.48;;;6.60;99.90;;;;;;5112643;27;20030;-55
2021/03/23 03:11:37;;;;;;;60.70;30.73;;;6.50;99.90;;;;;;5119774;27;20639;-55
2021/03/23 03:14:03;;;;;;;71.88;30.98;;;6.50;99.90;;;;;;5115621;27;20458;-55
2021/03/23 03:16:28;;;;;;;63.40;30.60;;;6.50;99.90;;;;;;5095959;28;20058;-56
2021/03/23 03:18:54;;;;;;;61.22;29.33;;;6.50;99.90;;;;;;5102571;27;20035;-56
2021/03/23 03:21:20;;;;;;;58.83;28.17;;;6.50;99.90;;;;;;5111113;27;20031;-57
2021/03/23 03:23:46;;;;;;;70.55;31.23;;;6.50;99.90;;;;;;5114202;27;20114;-54
2021/03/23 03:26:12;;;;;;;62.78;29.48;;;6.50;99.90;;;;;;5111837;27;20164;-56
2021/03/23 03:28:37;;;;;;;64.80;29.70;;;6.50;99.90;;;;;;5114330;27;20023;-55
2021/03/23 03:31:04;;;;;;;70.95;31.20;;;6.50;99.90;;;;;;5114154;27;20134;-57
2021/03/23 03:33:30;;;;;;;62.63;32.10;;;6.60;99.90;;;;;;5113373;27;20031;-57
2021/03/23 03:35:55;;;;;;;63.15;29.58;;;6.60;99.90;;;;;;5094970;28;20104;-56
2021/03/23 03:38:23;;;;;;;65.05;31.25;;;6.60;99.90;;;;;;5105031;27;20070;-56
2021/03/23 03:40:55;;;;;;;69.57;31.83;;;6.50;99.90;;;;;;5114843;27;20034;-55
2021/03/23 03:43:23;;;;;;;72.05;31.55;;;6.50;99.90;;;;;;5107447;27;20027;-56
2021/03/23 03:45:48;;;;;;;69.07;31.88;;;6.50;99.90;;;;;;5116128;27;20023;-56
2021/03/23 03:48:15;;;;;;;73.13;35.13;;;6.40;99.90;;;;;;5113930;27;20435;-58
2021/03/23 03:50:40;;;;;;;62.00;30.50;;;6.40;99.90;;;;;;5119956;27;20031;-53
2021/03/23 03:53:08;;;;;;;64.75;30.95;;;6.40;99.90;;;;;;5109562;27;20096;-55
2021/03/23 03:55:36;;;;;;;75.47;32.63;;;6.30;99.90;;;;;;5112865;27;20032;-56
2021/03/23 03:58:03;;;;;;;69.10;33.30;;;6.20;99.90;;;;;;5113948;28;20024;-53
2021/03/23 04:00:31;;;;;;;67.57;30.13;;;6.20;99.90;;;;;;5113588;28;20053;-54
2021/03/23 04:02:57;;;;;;;62.45;29.98;;;6.20;99.90;;;;;;5113059;27;20023;-55
2021/03/23 04:05:30;;;;;;;80.85;33.10;;;6.20;99.90;;;;;;5116825;27;20085;-53
2021/03/23 04:07:55;;;;;;;64.03;31.98;;;6.20;99.90;;;;;;5106021;27;20027;-56
2021/03/23 04:10:22;;;;;;;64.55;31.17;;;6.20;99.90;;;;;;5123901;27;20012;-52
2021/03/23 04:12:49;;;;;;;63.65;32.25;;;6.20;99.90;;;;;;5113727;27;20436;-56
2021/03/23 04:15:22;;;;;;;62.70;30.05;;;6.20;99.90;;;;;;5103694;28;20509;-55
2021/03/23 04:17:47;;;;;;;71.18;32.63;;;6.30;99.90;;;;;;5112611;28;20023;-57
2021/03/23 04:20:14;;;;;;;64.88;32.03;;;6.30;99.90;;;;;;5113128;27;20549;-57
2021/03/23 04:22:40;;;;;;;67.32;31.70;;;6.40;99.90;;;;;;5112448;27;20032;-57
2021/03/23 04:25:08;;;;;;;65.93;31.85;;;6.40;99.90;;;;;;5104741;27;20028;-55
2021/03/23 04:27:33;;;;;;;61.25;30.38;;;6.50;99.90;;;;;;5111575;28;20024;-54
2021/03/23 04:29:59;;;;;;;64.35;32.22;;;6.50;99.90;;;;;;5112736;27;20011;-56
2021/03/23 04:32:25;;;;;;;64.55;30.70;;;6.40;99.90;;;;;;5109474;28;20396;-56
2021/03/23 04:34:50;;;;;;;62.92;31.15;;;6.40;99.90;;;;;;5104060;27;20026;-52
2021/03/23 04:37:16;;;;;;;64.40;32.55;;;6.30;99.90;;;;;;5109225;28;20024;-54
2021/03/23 04:39:42;;;;;;;63.25;30.58;;;6.30;99.90;;;;;;5111264;28;20362;-56
2021/03/23 04:42:08;;;;;;;64.57;31.63;;;6.30;99.90;;;;;;5115714;27;20028;-56
2021/03/23 04:44:34;;;;;;;63.42;31.10;;;6.40;99.90;;;;;;5108110;28;20024;-57
2021/03/23 04:46:59;;;;;;;74.50;32.65;;;6.40;99.90;;;;;;5109897;27;20065;-52
2021/03/23 04:49:25;;;;;;;64.75;30.75;;;6.30;99.90;;;;;;5107225;28;20063;-57
2021/03/23 04:51:50;;;;;;;68.35;31.73;;;6.20;99.90;;;;;;5126034;27;20083;-58
2021/03/23 04:54:16;;;;;;;70.68;32.10;;;6.20;99.90;;;;;;5119403;27;20123;-53
2021/03/23 04:56:42;;;;;;;66.22;32.97;;;6.10;99.90;;;;;;5118027;27;20036;-55
2021/03/23 04:59:09;;;;;;;63.20;31.67;;;6.20;99.90;;;;;;5106781;27;20487;-56
2021/03/23 05:01:36;;;;;;;65.93;29.23;;;6.20;99.90;;;;;;5111589;28;20516;-56
2021/03/23 05:04:05;;;;;;;66.35;29.35;;;6.20;99.90;;;;;;5108862;27;20031;-56
2021/03/23 05:06:31;;;;;;;61.83;29.85;;;6.20;99.90;;;;;;5114611;27;20114;-56
2021/03/23 05:08:57;;;;;;;62.60;29.55;;;6.30;99.90;;;;;;5112378;27;20491;-53
2021/03/23 05:11:28;;;;;;;59.60;29.83;;;6.40;99.90;;;;;;5104804;27;20060;-54
2021/03/23 05:13:54;;;;;;;63.65;30.73;;;6.50;99.90;;;;;;5097486;27;20460;-56
2021/03/23 05:16:21;;;;;;;60.38;30.50;;;6.50;99.90;;;;;;5109781;28;20020;-57
2021/03/23 05:18:48;;;;;;;59.78;29.10;;;6.50;99.90;;;;;;5111889;28;20046;-55
2021/03/23 05:21:14;;;;;;;62.13;29.65;;;6.60;99.90;;;;;;5108606;28;20020;-57
2021/03/23 05:23:40;;;;;;;64.88;31.05;;;6.60;99.90;;;;;;5109347;28;20480;-56
2021/03/23 05:26:07;;;;;;;66.38;31.70;;;6.60;99.90;;;;;;5110736;27;20378;-56
2021/03/23 05:28:33;;;;;;;56.22;29.52;;;6.60;99.90;;;;;;5109283;28;20498;-56
2021/03/23 05:30:59;;;;;;;59.75;29.58;;;6.60;99.90;;;;;;5110764;28;20020;-55
2021/03/23 05:33:25;;;;;;;63.45;30.85;;;6.60;99.90;;;;;;5113754;28;20050;-57
2021/03/23 05:35:52;;;;;;;69.68;31.45;;;6.50;99.90;;;;;;5109032;28;20034;-56
2021/03/23 05:38:18;;;;;;;61.05;31.20;;;6.50;99.90;;;;;;5113191;28;20095;-57
2021/03/23 05:40:50;;;;;;;71.05;31.63;;;6.40;99.90;;;;;;5114947;28;20045;-56
2021/03/23 05:43:31;;;;;;;63.70;30.55;;;6.40;99.90;;;;;;5115926;28;20122;-56
2021/03/23 05:46:02;;;;;;;94.47;33.15;;;6.30;99.90;;;;;;5110396;28;20019;-55
2021/03/23 05:48:30;;;;;;;69.32;32.63;;;6.30;99.90;;;;;;5109121;28;20016;-53
2021/03/23 05:51:22;;;;;;;65.82;31.63;;;6.30;99.90;;;;;;5114147;28;20066;-55
2021/03/23 05:53:57;;;;;;;74.03;33.10;;;6.30;99.90;;;;;;5104625;28;20024;-56
2021/03/23 05:56:23;;;;;;;66.00;31.30;;;6.30;99.90;;;;;;5108171;28;20519;-57
2021/03/23 05:58:53;;;;;;;70.15;32.38;;;6.40;99.90;;;;;;5111673;28;20513;-57
2021/03/23 06:01:25;;;;;;;63.72;32.58;;;6.40;99.90;;;;;;5117606;28;20028;-55
2021/03/23 06:04:03;;;;;;;61.55;30.10;;;6.40;99.90;;;;;;5111978;28;20028;-56
2021/03/23 06:06:34;;;;;;;67.75;31.67;;;6.40;99.90;;;;;;5109460;28;20020;-54
2021/03/23 06:09:00;;;;;;;65.93;32.35;;;6.50;99.90;;;;;;5108030;28;20023;-54
2021/03/23 06:11:43;;;;;;;63.17;32.33;;;6.50;99.90;;;;;;5103644;28;20107;-54
2021/03/23 06:14:18;;;;;;;63.88;30.75;;;6.50;99.90;;;;;;5099911;28;20115;-56
2021/03/23 06:16:52;;;;;;;66.93;30.35;;;6.60;99.90;;;;;;5107857;28;20047;-55
2021/03/23 06:19:34;;;;;;;66.38;33.45;;;6.50;99.90;;;;;;5100371;28;20077;-55
2021/03/23 06:22:11;;;;;;;63.28;32.75;;;6.60;99.90;;;;;;5104087;28;20038;-56
2021/03/23 06:24:51;;;;;;;62.38;31.13;;;6.60;99.90;;;;;;5114360;27;20115;-52
2021/03/23 06:27:51;;;;;;;70.63;32.97;;;6.60;99.90;;;;;;5108754;27;20028;-51
2021/03/23 06:30:33;;;;;;;62.38;31.98;;;6.60;99.90;;;;;;5099030;27;20032;-53
2021/03/23 06:32:58;;;;;;;59.97;29.98;;;6.60;99.90;;;;;;5105259;27;20031;-54
2021/03/23 06:35:33;;;;;;;64.80;31.65;;;6.60;99.90;;;;;;5115655;27;20032;-53
2021/03/23 06:38:01;;;;;;;62.15;31.63;;;6.50;99.90;;;;;;5110932;27;20059;-51
2021/03/23 06:40:33;;;;;;;66.75;31.95;;;6.60;99.90;;;;;;5111952;27;20019;-53
2021/03/23 06:43:29;;;;;;;63.78;32.80;;;6.60;99.90;;;;;;5108539;27;20500;-54
2021/03/23 06:46:04;;;;;;;70.82;31.83;;;6.60;99.90;;;;;;5108399;27;20020;-54
2021/03/23 06:48:31;;;;;;;78.28;35.08;;;6.60;99.90;;;;;;5108904;27;20043;-54
2021/03/23 06:51:16;;;;;;;73.28;34.00;;;6.60;99.90;;;;;;5115143;27;20050;-52
2021/03/23 06:53:42;;;;;;;69.00;31.50;;;6.70;99.90;;;;;;5123470;27;20023;-51
2021/03/23 06:56:20;;;;;;;59.88;31.17;;;6.70;99.90;;;;;;5114204;27;20393;-51
2021/03/23 06:58:46;;;;;;;57.53;29.58;;;6.80;99.90;;;;;;5112237;27;20035;-54
2021/03/23 07:01:22;;;;;;;64.80;31.13;;;6.80;99.90;;;;;;5111341;27;20074;-53
2021/03/23 07:03:53;;;;;;;60.63;31.13;;;6.80;99.90;;;;;;5116522;27;20027;-55
2021/03/23 07:06:20;;;;;;;62.10;32.25;;;6.80;99.90;;;;;;5110228;27;20032;-51
2021/03/23 07:09:04;;;;;;;59.28;31.38;;;6.80;99.90;;;;;;5120401;27;20045;-52
2021/03/23 07:11:48;;;;;;;67.25;33.35;;;6.90;99.90;;;;;;5112203;27;20440;-55
2021/03/23 07:14:47;;;;;;;63.03;29.67;;;6.90;99.90;;;;;;5111102;27;20227;-53
2021/03/23 07:17:26;;;;;;;54.88;29.27;;;6.90;99.90;;;;;;5107751;27;20518;-54
2021/03/23 07:19:53;;;;;;;64.47;31.83;;;6.90;99.90;;;;;;5116233;27;20477;-52
2021/03/23 07:22:40;;;;;;;56.83;29.55;;;6.90;99.90;;;;;;5114564;27;20035;-53
2021/03/23 07:25:36;;;;;;;58.78;29.23;;;7.00;99.90;;;;;;5115486;27;20027;-51
2021/03/23 07:28:23;;;;;;;57.70;28.95;;;7.00;99.90;;;;;;5105897;27;20028;-56
2021/03/23 07:31:01;;;;;;;56.70;28.60;;;7.10;99.90;;;;;;5094487;27;20058;-54
2021/03/23 07:33:38;;;;;;;56.65;29.45;;;7.10;99.90;;;;;;5107397;27;20160;-51
2021/03/23 07:36:07;;;;;;;56.08;28.25;;;7.10;99.90;;;;;;5103396;27;20032;-50
2021/03/23 07:38:54;;;;;;;54.10;28.02;;;7.20;99.90;;;;;;5112385;28;20028;-50
2021/03/23 07:41:28;;;;;;;54.35;28.70;;;7.20;99.90;;;;;;5118650;27;20050;-54
2021/03/23 07:44:02;;;;;;;58.42;30.67;;;7.30;99.90;;;;;;5110088;27;20397;-54
2021/03/23 07:46:36;;;;;;;60.50;28.67;;;7.30;99.90;;;;;;5133635;27;20036;-55
2021/03/23 07:49:24;;;;;;;57.88;28.65;;;7.40;99.90;;;;;;5123051;27;20159;-54
2021/03/23 07:51:59;;;;;;;56.03;29.90;;;7.40;99.90;;;;;;5106596;28;20031;-55
2021/03/23 07:54:35;;;;;;;59.03;29.08;;;7.40;99.90;;;;;;5112017;27;20042;-53
2021/03/23 07:57:26;;;;;;;62.80;28.70;;;7.40;99.90;;;;;;5108219;27;20168;-54
2021/03/23 08:00:17;;;;;;;62.22;27.35;;;7.40;99.90;;;;;;5105586;27;20501;-52
2021/03/23 08:02:53;;;;;;;51.45;27.60;;;7.50;99.90;;;;;;5104017;27;20446;-52
2021/03/23 08:05:55;;;;;;;61.28;29.42;;;7.50;99.90;;;;;;5096372;27;20524;-54
2021/03/23 08:08:23;;;;;;;54.35;27.38;;;7.60;99.90;;;;;;5110065;27;20024;-53
2021/03/23 08:11:15;;;;;;;52.22;26.38;;;7.70;99.90;;;;;;5117381;27;20028;-53
2021/03/23 08:13:45;;;;;;;44.50;24.83;;;7.80;99.90;;;;;;5123792;27;20031;-55
2021/03/23 08:16:34;;;;;;;51.63;26.92;;;7.80;99.90;;;;;;5107138;28;20077;-54
2021/03/23 08:19:29;;;;;;;51.50;26.88;;;7.80;99.90;;;;;;5111759;27;20057;-52
2021/03/23 08:22:36;;;;;;;47.10;24.23;;;7.70;99.90;;;;;;5107946;27;20031;-54
2021/03/23 08:25:26;;;;;;;50.00;24.55;;;7.80;99.90;;;;;;5112748;27;20103;-51
2021/03/23 08:28:17;;;;;;;50.13;25.75;;;7.80;99.90;;;;;;5106977;27;20484;-50
2021/03/23 08:31:16;;;;;;;47.55;25.73;;;7.80;99.90;;;;;;5102696;28;20030;-51
2021/03/23 08:34:16;;;;;;;50.67;25.50;;;7.70;99.90;;;;;;5110222;27;20038;-51
2021/03/23 08:37:12;;;;;;;48.85;25.33;;;7.70;99.90;;;;;;5105785;27;20034;-53
2021/03/23 08:39:48;;;;;;;48.83;24.35;;;7.80;99.90;;;;;;5109535;27;20269;-54
2021/03/23 08:42:23;;;;;;;47.55;24.27;;;7.80;99.90;;;;;;5110487;28;20070;-53
2021/03/23 08:45:03;;;;;;;51.13;24.25;;;7.80;99.90;;;;;;5105627;27;20065;-50
2021/03/23 08:47:41;;;;;;;49.35;24.50;;;7.90;99.90;;;;;;5104552;28;20389;-50
2021/03/23 08:50:20;;;;;;;52.13;24.95;;;8.00;99.90;;;;;;5112116;27;20023;-55
2021/03/23 08:52:48;;;;;;;43.13;23.25;;;8.00;99.90;;;;;;5112344;28;20046;-53
2021/03/23 08:55:32;;;;;;;48.17;23.88;;;8.00;99.90;;;;;;5120500;27;20032;-50
2021/03/23 08:58:10;;;;;;;50.63;24.13;;;8.10;99.90;;;;;;5105971;27;20073;-54
2021/03/23 09:00:35;;;;;;;41.40;21.77;;;8.10;99.90;;;;;;5104843;28;20119;-55
2021/03/23 09:03:08;;;;;;;52.65;23.27;;;8.20;99.90;;;;;;5111995;28;20118;-53
2021/03/23 09:06:05;;;;;;;48.70;23.42;;;8.20;99.90;;;;;;5125238;27;20027;-55
2021/03/23 09:08:39;;;;;;;48.20;23.83;;;8.20;99.90;;;;;;5106697;27;20046;-55
2021/03/23 09:11:16;;;;;;;47.50;22.67;;;8.20;99.90;;;;;;5115438;27;20424;-54
2021/03/23 09:13:43;;;;;;;51.42;24.85;;;8.30;99.90;;;;;;5114293;27;20035;-54
2021/03/23 09:16:11;;;;;;;62.75;25.77;;;8.30;99.90;;;;;;5102091;27;20031;-54
2021/03/23 09:19:00;;;;;;;48.55;24.10;;;8.30;99.90;;;;;;5111327;28;20027;-53
2021/03/23 09:21:52;;;;;;;49.55;24.45;;;8.40;99.90;;;;;;5097343;28;20067;-51
2021/03/23 09:24:38;;;;;;;50.63;24.27;;;8.50;99.90;;;;;;5106155;27;20038;-50
2021/03/23 09:27:10;;;;;;;48.30;23.40;;;8.40;99.90;;;;;;5116048;27;20519;-52
2021/03/23 09:29:42;;;;;;;51.78;24.23;;;8.60;99.90;;;;;;5108020;28;20042;-54
2021/03/23 09:32:09;;;;;;;55.42;24.80;;;8.70;99.90;;;;;;5107647;27;20489;-51
2021/03/23 09:35:15;;;;;;;43.92;22.33;;;8.70;99.90;;;;;;5117399;27;20028;-54
2021/03/23 09:37:43;;;;;;;50.33;24.27;;;8.80;99.90;;;;;;5020585;28;20463;-52
2021/03/23 09:40:20;;;;;;;46.40;22.83;;;9.00;99.90;;;;;;5097946;28;20064;-51
2021/03/23 09:42:46;;;;;;;40.75;21.95;;;9.10;99.90;;;;;;5102273;28;20104;-54
2021/03/23 09:45:15;;;;;;;41.33;23.98;;;9.10;99.90;;;;;;5105420;28;20146;-52
2021/03/23 09:47:53;;;;;;;44.67;23.30;;;9.20;99.90;;;;;;5113591;28;20016;-52
2021/03/23 09:51:03;;;;;;;45.05;22.65;;;9.20;99.90;;;;;;5107889;28;20394;-51
2021/03/23 09:53:29;;;;;;;45.85;23.55;;;9.40;99.90;;;;;;5097970;28;20044;-53
2021/03/23 09:56:24;;;;;;;48.10;23.48;;;9.50;99.90;;;;;;5107667;28;20024;-53
2021/03/23 09:59:01;;;;;;;48.53;23.98;;;9.60;99.90;;;;;;5106431;28;20105;-52
2021/03/23 10:01:27;;;;;;;54.47;23.67;;;9.60;99.90;;;;;;5111811;27;20027;-55
2021/03/23 10:03:55;;;;;;;50.72;23.33;;;9.60;99.90;;;;;;5115006;27;20019;-52
2021/03/23 10:06:27;;;;;;;44.33;22.98;;;9.70;99.90;;;;;;5109760;27;20485;-51
2021/03/23 10:09:06;;;;;;;47.38;24.67;;;9.70;99.90;;;;;;5111493;27;20024;-54
2021/03/23 10:11:44;;;;;;;51.03;25.45;;;9.50;99.90;;;;;;5110611;27;20485;-53
2021/03/23 10:14:19;;;;;;;44.67;23.27;;;9.70;99.90;;;;;;5118127;27;20117;-53
2021/03/23 10:16:44;;;;;;;45.83;22.10;;;9.90;99.90;;;;;;5107556;27;20032;-50
2021/03/23 10:19:23;;;;;;;48.67;24.50;;;9.90;99.90;;;;;;5114189;27;20414;-54
2021/03/23 10:21:52;;;;;;;49.30;23.45;;;10.10;99.90;;;;;;5111051;27;20020;-54
2021/03/23 10:24:23;;;;;;;41.75;21.80;;;10.30;99.90;;;;;;5119806;27;20205;-51
2021/03/23 10:26:51;;;;;;;46.63;24.33;;;10.30;99.90;;;;;;5114036;27;20027;-52
2021/03/23 10:29:19;;;;;;;49.05;22.60;;;10.20;99.90;;;;;;5115129;27;20031;-54
2021/03/23 10:31:50;;;;;;;42.50;22.15;;;10.30;99.90;;;;;;5107205;27;20456;-52
2021/03/23 10:34:23;;;;;;;40.63;21.23;;;10.60;99.90;;;;;;5113533;27;20489;-50
2021/03/23 10:36:54;;;;;;;50.53;21.92;;;10.70;99.90;;;;;;5113697;27;20053;-54
2021/03/23 10:39:43;;;;;;;47.40;22.35;;;10.80;99.90;;;;;;5103547;27;20028;-55
2021/03/23 10:42:16;;;;;;;45.15;21.33;;;10.80;99.90;;;;;;5109683;27;20028;-51
2021/03/23 10:44:42;;;;;;;57.80;23.83;;;11.00;99.90;;;;;;5105819;27;20458;-52
2021/03/23 10:47:35;;;;;;;48.05;22.50;;;10.80;99.90;;;;;;5111279;27;20023;-53
2021/03/23 10:50:30;;;;;;;52.00;23.77;;;11.00;99.90;;;;;;5108439;27;20016;-49
2021/03/23 10:53:13;;;;;;;42.85;22.17;;;11.00;99.90;;;;;;5112023;27;20031;-49
2021/03/23 10:55:42;;;;;;;45.58;21.13;;;11.10;99.90;;;;;;5112876;27;20059;-53
2021/03/23 10:58:25;;;;;;;50.97;21.92;;;11.00;99.90;;;;;;5114149;27;20042;-51
2021/03/23 11:01:15;;;;;;;44.15;21.08;;;11.20;99.90;;;;;;5116401;27;20069;-52
2021/03/23 11:03:42;;;;;;;43.08;21.65;;;11.40;99.90;;;;;;5103905;27;20031;-52
2021/03/23 11:06:32;;;;;;;43.50;20.17;;;11.60;99.90;;;;;;5112618;27;20023;-50
2021/03/23 11:08:58;;;;;;;40.03;21.25;;;11.80;99.90;;;;;;5111600;27;20505;-53
2021/03/23 11:11:24;;;;;;;46.30;23.08;;;12.10;99.90;;;;;;5111227;27;20024;-51
2021/03/23 11:13:49;;;;;;;39.75;20.30;;;12.20;99.90;;;;;;5111591;27;20016;-53
2021/03/23 11:16:18;;;;;;;42.22;20.70;;;12.20;99.90;;;;;;5111334;27;20458;-51
2021/03/23 11:18:46;;;;;;;40.92;20.83;;;12.10;99.90;;;;;;5110382;27;20032;-52
2021/03/23 11:21:15;;;;;;;37.75;19.58;;;12.20;99.90;;;;;;5117245;27;20454;-50
2021/03/23 11:23:44;;;;;;;40.83;20.50;;;12.30;99.90;;;;;;5119213;27;20054;-50
2021/03/23 11:26:24;;;;;;;43.33;20.15;;;12.30;99.90;;;;;;5120133;27;20027;-50
2021/03/23 11:28:56;;;;;;;45.22;21.00;;;12.20;99.90;;;;;;5109918;27;20485;-49
2021/03/23 11:31:27;;;;;;;41.83;20.15;;;12.10;99.90;;;;;;5110827;27;20146;-50
2021/03/23 11:33:55;;;;;;;43.53;20.27;;;12.10;99.90;;;;;;5109684;27;20031;-51
2021/03/23 11:36:22;;;;;;;40.40;19.13;;;11.80;99.90;;;;;;5113424;27;20039;-55
2021/03/23 11:38:48;;;;;;;38.25;19.40;;;11.80;99.90;;;;;;5110358;27;20122;-50
2021/03/23 11:41:23;;;;;;;44.42;23.25;;;11.90;99.90;;;;;;5109954;27;20110;-52
2021/03/23 11:43:57;;;;;;;39.45;18.27;;;12.00;99.90;;;;;;5111183;27;20027;-52
2021/03/23 11:46:46;;;;;;;38.67;18.83;;;12.10;99.90;;;;;;5108229;27;20019;-53
2021/03/23 11:49:19;;;;;;;35.78;18.80;;;12.20;99.90;;;;;;5069977;27;20115;-56
2021/03/23 11:51:47;;;;;;;38.08;17.83;;;12.20;99.90;;;;;;5104719;27;20492;-53
2021/03/23 11:54:13;;;;;;;37.78;19.20;;;12.20;99.90;;;;;;5104869;27;20028;-50
2021/03/23 11:56:39;;;;;;;36.13;17.95;;;12.20;99.90;;;;;;5103382;27;20028;-50
2021/03/23 11:59:05;;;;;;;36.92;18.58;;;12.40;99.90;;;;;;5084642;27;20028;-49
2021/03/23 12:01:31;;;;;;;37.10;18.15;;;12.50;99.90;;;;;;5104153;27;20397;-50
2021/03/23 12:03:57;;;;;;;36.50;18.67;;;12.60;99.90;;;;;;5103996;27;20032;-49
2021/03/23 12:06:58;;;;;;;42.72;19.13;;;12.70;99.90;;;;;;5107841;27;20028;-55
2021/03/23 12:09:48;;;;;;;34.17;18.63;;;13.00;99.90;;;;;;5106462;27;20076;-53
2021/03/23 12:12:27;;;;;;;37.17;18.95;;;13.20;99.90;;;;;;5113793;27;20054;-53
2021/03/23 12:15:19;;;;;;;34.55;17.98;;;13.00;99.90;;;;;;5110482;27;20477;-52
2021/03/23 12:17:48;;;;;;;37.47;17.65;;;12.60;99.90;;;;;;5107926;27;20034;-52
2021/03/23 12:20:19;;;;;;;36.25;18.75;;;12.50;99.90;;;;;;5103310;27;20039;-51
2021/03/23 12:22:49;;;;;;;39.67;18.77;;;12.40;99.90;;;;;;5106353;27;20054;-53
2021/03/23 12:25:17;;;;;;;41.85;19.55;;;12.50;99.90;;;;;;5109379;27;20056;-52
2021/03/23 12:27:44;;;;;;;44.40;19.63;;;12.30;99.90;;;;;;5111098;27;20024;-50
2021/03/23 12:30:10;;;;;;;38.58;18.83;;;12.40;99.90;;;;;;5095716;28;20628;-50
2021/03/23 12:32:36;;;;;;;37.28;19.92;;;12.50;99.90;;;;;;5107776;28;20512;-50
2021/03/23 12:35:08;;;;;;;46.15;19.85;;;12.70;99.90;;;;;;5098282;27;20047;-51
2021/03/23 12:37:34;;;;;;;35.70;19.48;;;12.80;99.90;;;;;;5108162;27;20451;-52
2021/03/23 12:40:00;;;;;;;39.25;19.58;;;13.00;99.90;;;;;;5106633;27;20064;-50
2021/03/23 12:42:27;;;;;;;37.50;19.08;;;13.40;99.90;;;;;;5106827;28;20035;-51
2021/03/23 12:44:53;;;;;;;34.10;18.23;;;13.90;99.90;;;;;;5118808;27;20026;-53
2021/03/23 12:47:18;;;;;;;34.70;18.38;;;13.80;99.90;;;;;;5104830;28;20024;-54
2021/03/23 12:49:44;;;;;;;37.88;20.48;;;14.00;99.90;;;;;;5103467;28;20024;-53
2021/03/23 12:52:13;;;;;;;39.55;18.90;;;14.20;99.90;;;;;;5110464;27;20023;-50
2021/03/23 12:54:46;;;;;;;39.05;19.80;;;14.20;99.90;;;;;;5104186;27;20050;-53
2021/03/23 12:57:21;;;;;;;39.45;21.52;;;14.20;99.90;;;;;;5100531;27;20592;-50
2021/03/23 12:59:48;;;;;;;38.05;19.23;;;14.40;99.90;;;;;;5108778;27;20108;-54